createdAt,value
2018-02-22T00:00:51.792Z,25.90
2018-02-22T00:01:54.330Z,31.87
2018-02-22T00:02:56.864Z,24.15
2018-02-22T00:03:59.384Z,26.87
2018-02-22T00:05:01.945Z,21.90
2018-02-22T00:06:04.465Z,24.27
2018-02-22T00:07:06.981Z,31.15
2018-02-22T00:08:09.492Z,25.33
2018-02-22T00:09:12.053Z,30.02
2018-02-22T00:10:14.592Z,28.00
2018-02-22T00:11:17.156Z,20.65
2018-02-22T00:12:19.688Z,28.15
2018-02-22T00:13:22.979Z,24.02
2018-02-22T00:14:25.618Z,23.17
2018-02-22T00:15:28.146Z,25.67
2018-02-22T00:16:30.678Z,25.75
2018-02-22T00:17:33.198Z,25.77
2018-02-22T00:18:35.717Z,26.67
2018-02-22T00:19:38.272Z,31.73
2018-02-22T00:20:41.573Z,23.87
2018-02-22T00:21:44.094Z,27.55
2018-02-22T00:22:46.622Z,25.37
2018-02-22T00:23:49.148Z,26.45
2018-02-22T00:24:52.476Z,24.33
2018-02-22T00:25:55.012Z,25.50
2018-02-22T00:26:57.533Z,26.08
2018-02-22T00:28:00.051Z,25.88
2018-02-22T00:29:02.584Z,24.40
2018-02-22T00:30:05.924Z,32.88
2018-02-22T00:31:08.457Z,30.40
2018-02-22T00:32:10.980Z,33.65
2018-02-22T00:33:13.514Z,26.40
2018-02-22T00:34:16.040Z,26.90
2018-02-22T00:35:19.361Z,24.05
2018-02-22T00:36:21.927Z,24.30
2018-02-22T00:37:24.447Z,33.28
2018-02-22T00:38:27.737Z,24.63
2018-02-22T00:39:31.026Z,26.90
2018-02-22T00:40:34.341Z,30.50
2018-02-22T00:41:36.993Z,23.80
2018-02-22T00:42:39.517Z,24.30
2018-02-22T00:43:42.041Z,22.87
2018-02-22T00:44:44.570Z,27.70
2018-02-22T00:45:47.873Z,26.50
2018-02-22T00:46:50.440Z,25.45
2018-02-22T00:47:52.973Z,22.35
2018-02-22T00:48:55.502Z,28.70
2018-02-22T00:49:58.029Z,23.35
2018-02-22T00:51:01.317Z,25.40
2018-02-22T00:52:04.649Z,22.73
2018-02-22T00:53:07.167Z,24.23
2018-02-22T00:54:10.468Z,25.33
2018-02-22T00:55:12.998Z,24.10
2018-02-22T00:56:16.289Z,23.52
2018-02-22T00:57:19.620Z,26.48
2018-02-22T00:58:22.144Z,26.67
2018-02-22T00:59:25.434Z,24.90
2018-02-22T01:00:28.742Z,28.27
2018-02-22T01:01:31.304Z,27.70
2018-02-22T01:02:33.821Z,27.70
2018-02-22T01:03:36.385Z,26.23
2018-02-22T01:04:38.925Z,27.48
2018-02-22T01:05:41.446Z,29.37
2018-02-22T01:06:44.733Z,23.92
2018-02-22T01:07:48.017Z,23.75
2018-02-22T01:08:50.594Z,27.95
2018-02-22T01:09:53.125Z,27.92
2018-02-22T01:10:55.646Z,27.00
2018-02-22T01:11:58.256Z,28.92
2018-02-22T01:13:00.780Z,25.40
2018-02-22T01:14:03.336Z,24.48
2018-02-22T01:15:05.856Z,22.30
2018-02-22T01:16:08.380Z,26.80
2018-02-22T01:17:10.909Z,24.20
2018-02-22T01:18:14.201Z,25.70
2018-02-22T01:19:16.762Z,28.05
2018-02-22T01:20:20.080Z,24.00
2018-02-22T01:21:22.598Z,27.75
2018-02-22T01:22:25.886Z,25.45
2018-02-22T01:23:29.224Z,25.58
2018-02-22T01:24:31.764Z,26.75
2018-02-22T01:25:34.317Z,30.05
2018-02-22T01:26:36.849Z,21.75
2018-02-22T01:27:39.377Z,28.73
2018-02-22T01:28:41.900Z,25.83
2018-02-22T01:29:45.194Z,22.17
2018-02-22T01:30:48.513Z,29.55
2018-02-22T01:31:51.090Z,26.65
2018-02-22T01:32:53.613Z,26.85
2018-02-22T01:33:56.148Z,30.12
2018-02-22T01:34:58.673Z,25.05
2018-02-22T01:36:01.198Z,25.27
2018-02-22T01:37:04.520Z,23.55
2018-02-22T01:38:07.045Z,27.17
2018-02-22T01:39:10.376Z,27.13
2018-02-22T01:40:12.901Z,24.85
2018-02-22T01:41:16.196Z,23.25
2018-02-22T01:42:19.476Z,27.13
2018-02-22T01:43:22.821Z,27.70
2018-02-22T01:44:25.352Z,31.15
2018-02-22T01:45:27.887Z,24.25
2018-02-22T01:46:31.182Z,27.52
2018-02-22T01:47:33.714Z,28.75
2018-02-22T01:48:36.285Z,25.45
2018-02-22T01:49:38.817Z,25.10
2018-02-22T01:50:41.344Z,25.25
2018-02-22T01:51:44.640Z,27.13
2018-02-22T01:52:47.169Z,24.12
2018-02-22T01:53:49.744Z,30.70
2018-02-22T01:54:53.044Z,27.37
2018-02-22T01:55:56.334Z,27.02
2018-02-22T01:56:58.863Z,29.73
2018-02-22T01:58:01.381Z,26.75
2018-02-22T01:59:03.940Z,27.37
2018-02-22T02:00:06.466Z,24.10
2018-02-22T02:01:09.028Z,26.60
2018-02-22T02:02:11.561Z,25.65
2018-02-22T02:03:14.093Z,31.67
2018-02-22T02:04:17.377Z,27.75
2018-02-22T02:05:20.696Z,26.08
2018-02-22T02:06:23.230Z,28.12
2018-02-22T02:07:25.757Z,23.98
2018-02-22T02:08:28.291Z,25.85
2018-02-22T02:09:30.905Z,26.20
2018-02-22T02:10:34.198Z,29.77
2018-02-22T02:11:37.500Z,21.92
2018-02-22T02:12:40.040Z,21.65
2018-02-22T02:13:43.337Z,23.85
2018-02-22T02:14:46.668Z,27.85
2018-02-22T02:15:49.201Z,23.52
2018-02-22T02:16:51.739Z,28.20
2018-02-22T02:17:54.308Z,27.33
2018-02-22T02:18:57.614Z,26.42
2018-02-22T02:20:00.212Z,32.83
2018-02-22T02:21:02.782Z,24.98
2018-02-22T02:22:05.280Z,28.50
2018-02-22T02:23:07.815Z,32.55
2018-02-22T02:24:10.338Z,25.55
2018-02-22T02:25:13.665Z,20.42
2018-02-22T02:26:16.197Z,28.73
2018-02-22T02:27:18.734Z,25.15
2018-02-22T02:28:21.260Z,29.50
2018-02-22T02:29:23.822Z,28.80
2018-02-22T02:30:26.369Z,28.02
2018-02-22T02:31:28.901Z,27.55
2018-02-22T02:32:31.591Z,24.65
2018-02-22T02:33:34.907Z,24.37
2018-02-22T02:34:37.462Z,27.05
2018-02-22T02:35:39.996Z,28.00
2018-02-22T02:36:43.291Z,25.73
2018-02-22T02:37:45.816Z,26.90
2018-02-22T02:38:48.363Z,27.05
2018-02-22T02:39:50.926Z,27.48
2018-02-22T02:40:53.467Z,25.42
2018-02-22T02:41:55.993Z,22.37
2018-02-22T02:42:58.518Z,27.30
2018-02-22T02:44:01.178Z,27.15
2018-02-22T02:45:03.746Z,23.38
2018-02-22T02:46:06.273Z,26.73
2018-02-22T02:47:09.570Z,24.55
2018-02-22T02:48:12.870Z,24.23
2018-02-22T02:49:15.409Z,22.45
2018-02-22T02:50:18.741Z,25.98
2018-02-22T02:51:21.270Z,23.98
2018-02-22T02:52:24.596Z,29.02
2018-02-22T02:53:27.148Z,25.88
2018-02-22T02:54:29.675Z,26.80
2018-02-22T02:55:32.969Z,30.02
2018-02-22T02:56:36.281Z,25.40
2018-02-22T02:57:38.855Z,25.25
2018-02-22T02:58:41.383Z,24.85
2018-02-22T02:59:44.675Z,24.58
2018-02-22T03:00:47.961Z,29.33
2018-02-22T03:01:51.262Z,25.15
2018-02-22T03:02:53.833Z,25.92
2018-02-22T03:03:56.349Z,26.75
2018-02-22T03:04:58.880Z,24.30
2018-02-22T03:06:01.449Z,27.40
2018-02-22T03:07:03.965Z,22.98
2018-02-22T03:08:07.301Z,28.75
2018-02-22T03:09:09.837Z,24.67
2018-02-22T03:10:12.360Z,24.08
2018-02-22T03:11:14.893Z,29.87
2018-02-22T03:12:17.425Z,27.52
2018-02-22T03:13:20.733Z,24.60
2018-02-22T03:14:23.264Z,25.48
2018-02-22T03:15:26.561Z,24.12
2018-02-22T03:16:29.858Z,25.17
2018-02-22T03:17:32.389Z,24.95
2018-02-22T03:18:34.968Z,24.98
2018-02-22T03:19:38.261Z,27.05
2018-02-22T03:20:41.563Z,31.55
2018-02-22T03:21:44.089Z,22.45
2018-02-22T03:22:46.612Z,21.20
2018-02-22T03:23:49.176Z,27.80
2018-02-22T03:24:51.729Z,25.42
2018-02-22T03:25:54.256Z,26.42
2018-02-22T03:26:56.785Z,27.87
2018-02-22T03:27:59.323Z,27.67
2018-02-22T03:29:01.910Z,25.17
2018-02-22T03:30:04.501Z,25.73
2018-02-22T03:31:07.030Z,24.80
2018-02-22T03:32:09.565Z,26.42
2018-02-22T03:33:12.858Z,27.17
2018-02-22T03:34:16.188Z,20.40
2018-02-22T03:35:18.707Z,26.80
2018-02-22T03:36:22.030Z,26.33
2018-02-22T03:37:24.557Z,24.55
2018-02-22T03:38:27.842Z,28.15
2018-02-22T03:39:31.132Z,26.87
2018-02-22T03:40:33.656Z,23.75
2018-02-22T03:41:36.238Z,26.48
2018-02-22T03:42:38.762Z,27.25
2018-02-22T03:43:41.297Z,25.62
2018-02-22T03:44:43.838Z,28.48
2018-02-22T03:45:46.353Z,28.17
2018-02-22T03:46:48.928Z,25.48
2018-02-22T03:47:51.458Z,25.35
2018-02-22T03:48:54.754Z,26.37
2018-02-22T03:49:57.281Z,25.20
2018-02-22T03:50:59.805Z,26.37
2018-02-22T03:52:02.372Z,28.17
2018-02-22T03:53:04.896Z,23.65
2018-02-22T03:54:08.180Z,25.23
2018-02-22T03:55:11.472Z,27.92
2018-02-22T03:56:14.773Z,26.58
2018-02-22T03:57:17.338Z,24.52
2018-02-22T03:58:19.870Z,21.70
2018-02-22T03:59:22.402Z,19.08
2018-02-22T04:00:24.920Z,25.30
2018-02-22T04:01:28.208Z,26.77
2018-02-22T04:02:30.776Z,23.08
2018-02-22T04:03:33.304Z,24.00
2018-02-22T04:04:35.874Z,23.20
2018-02-22T04:05:38.394Z,25.62
2018-02-22T04:06:40.928Z,24.42
2018-02-22T04:07:44.254Z,24.30
2018-02-22T04:08:46.894Z,24.48
2018-02-22T04:09:49.421Z,23.00
2018-02-22T04:10:51.947Z,23.08
2018-02-22T04:11:54.469Z,24.17
2018-02-22T04:12:57.002Z,25.35
2018-02-22T04:13:59.569Z,25.08
2018-02-22T04:15:02.103Z,24.02
2018-02-22T04:16:04.644Z,23.15
2018-02-22T04:17:07.925Z,24.77
2018-02-22T04:18:11.221Z,20.40
2018-02-22T04:19:14.539Z,27.70
2018-02-22T04:20:17.106Z,25.27
2018-02-22T04:21:19.620Z,21.77
2018-02-22T04:22:23.176Z,24.70
2018-02-22T04:23:26.536Z,28.83
2018-02-22T04:24:29.070Z,26.10
2018-02-22T04:25:32.393Z,21.92
2018-02-22T04:26:34.921Z,24.80
2018-02-22T04:27:38.206Z,28.55
2018-02-22T04:28:41.500Z,22.08
2018-02-22T04:29:44.085Z,26.20
2018-02-22T04:30:46.617Z,29.70
2018-02-22T04:31:49.940Z,26.27
2018-02-22T04:32:52.489Z,23.75
2018-02-22T04:33:55.014Z,26.73
2018-02-22T04:34:57.569Z,22.13
2018-02-22T04:36:00.089Z,21.92
2018-02-22T04:37:02.606Z,26.02
2018-02-22T04:38:05.125Z,24.70
2018-02-22T04:39:07.650Z,25.40
2018-02-22T04:40:10.222Z,24.08
2018-02-22T04:41:12.752Z,25.48
2018-02-22T04:42:15.311Z,23.45
2018-02-22T04:43:17.846Z,28.73
2018-02-22T04:44:20.369Z,25.42
2018-02-22T04:45:22.929Z,26.85
2018-02-22T04:46:25.886Z,27.40
2018-02-22T04:47:28.431Z,26.77
2018-02-22T04:48:30.961Z,28.27
2018-02-22T04:49:33.492Z,30.90
2018-02-22T04:50:36.057Z,30.35
2018-02-22T04:51:38.576Z,24.75
2018-02-22T04:52:41.885Z,31.12
2018-02-22T04:53:44.405Z,26.05
2018-02-22T04:54:46.934Z,25.85
2018-02-22T04:55:49.510Z,33.65
2018-02-22T04:56:52.032Z,30.17
2018-02-22T04:57:54.561Z,27.65
2018-02-22T04:58:57.096Z,28.40
2018-02-22T04:59:59.643Z,29.42
2018-02-22T05:01:02.203Z,43.83
2018-02-22T05:02:04.739Z,29.48
2018-02-22T05:03:08.038Z,46.40
2018-02-22T05:04:11.333Z,34.17
2018-02-22T05:05:13.874Z,37.60
2018-02-22T05:06:17.201Z,28.50
2018-02-22T05:07:19.733Z,28.33
2018-02-22T05:08:23.061Z,39.90
2018-02-22T05:09:25.586Z,30.95
2018-02-22T05:10:28.878Z,27.87
2018-02-22T05:11:31.454Z,30.25
2018-02-22T05:12:34.045Z,32.53
2018-02-22T05:13:36.577Z,28.67
2018-02-22T05:14:39.116Z,31.40
2018-02-22T05:15:41.632Z,30.27
2018-02-22T05:16:44.194Z,27.25
2018-02-22T05:17:46.775Z,30.77
2018-02-22T05:18:49.377Z,29.05
2018-02-22T05:19:51.901Z,27.30
2018-02-22T05:20:54.432Z,33.30
2018-02-22T05:21:57.716Z,29.67
2018-02-22T05:23:01.037Z,40.20
2018-02-22T05:24:03.559Z,54.10
2018-02-22T05:25:06.089Z,39.00
2018-02-22T05:26:08.650Z,34.22
2018-02-22T05:27:11.215Z,35.85
2018-02-22T05:28:13.711Z,30.00
2018-02-22T05:29:16.274Z,34.58
2018-02-22T05:30:18.797Z,29.70
2018-02-22T05:31:21.321Z,29.23
2018-02-22T05:32:23.847Z,34.63
2018-02-22T05:33:26.378Z,33.35
2018-02-22T05:34:28.948Z,32.95
2018-02-22T05:35:31.478Z,27.42
2018-02-22T05:36:34.015Z,27.67
2018-02-22T05:37:36.567Z,38.70
2018-02-22T05:38:39.089Z,53.70
2018-02-22T05:39:42.400Z,65.05
2018-02-22T05:40:44.921Z,62.60
2018-02-22T05:41:47.493Z,58.42
2018-02-22T05:42:50.013Z,32.47
2018-02-22T05:43:52.545Z,35.33
2018-02-22T05:44:55.837Z,28.08
2018-02-22T05:45:58.425Z,34.58
2018-02-22T05:47:00.979Z,42.22
2018-02-22T05:48:03.513Z,34.03
2018-02-22T05:49:06.043Z,32.25
2018-02-22T05:50:08.567Z,36.25
2018-02-22T05:51:11.897Z,41.83
2018-02-22T05:52:14.425Z,44.05
2018-02-22T05:53:16.988Z,52.25
2018-02-22T05:54:19.516Z,54.83
2018-02-22T05:55:22.037Z,52.70
2018-02-22T05:56:24.918Z,70.05
2018-02-22T05:57:27.452Z,70.82
2018-02-22T05:58:30.773Z,74.85
2018-02-22T05:59:33.306Z,69.80
2018-02-22T06:00:36.627Z,75.37
2018-02-22T06:01:39.157Z,75.40
2018-02-22T06:02:42.505Z,71.30
2018-02-22T06:03:45.030Z,73.50
2018-02-22T06:04:47.561Z,80.12
2018-02-22T06:05:50.877Z,57.30
2018-02-22T06:06:53.400Z,69.37
2018-02-22T06:07:55.958Z,65.60
2018-02-22T06:08:58.534Z,64.82
2018-02-22T06:10:01.057Z,67.60
2018-02-22T06:11:03.590Z,65.07
2018-02-22T06:12:06.142Z,59.83
2018-02-22T06:13:09.439Z,57.67
2018-02-22T06:14:12.760Z,59.72
2018-02-22T06:15:15.291Z,52.05
2018-02-22T06:16:18.590Z,57.42
2018-02-22T06:17:21.116Z,55.53
2018-02-22T06:18:23.658Z,53.22
2018-02-22T06:19:26.220Z,58.35
2018-02-22T06:20:28.766Z,52.95
2018-02-22T06:21:31.428Z,52.00
2018-02-22T06:22:33.949Z,55.05
2018-02-22T06:23:36.471Z,51.33
2018-02-22T06:24:38.996Z,43.58
2018-02-22T06:25:41.564Z,44.25
2018-02-22T06:26:44.858Z,43.87
2018-02-22T06:27:47.377Z,50.80
2018-02-22T06:28:49.909Z,47.58
2018-02-22T06:29:52.447Z,44.83
2018-02-22T06:30:55.786Z,42.53
2018-02-22T06:31:59.093Z,49.97
2018-02-22T06:33:01.619Z,44.17
2018-02-22T06:34:04.150Z,43.22
2018-02-22T06:35:07.442Z,44.53
2018-02-22T06:36:11.000Z,48.20
2018-02-22T06:37:13.568Z,46.70
2018-02-22T06:38:16.100Z,42.75
2018-02-22T06:39:18.628Z,45.42
2018-02-22T06:40:21.154Z,41.37
2018-02-22T06:41:23.690Z,43.33
2018-02-22T06:42:26.254Z,40.78
2018-02-22T06:43:28.786Z,45.67
2018-02-22T06:44:32.079Z,43.03
2018-02-22T06:45:34.614Z,45.63
2018-02-22T06:46:37.139Z,38.83
2018-02-22T06:47:39.705Z,39.65
2018-02-22T06:48:42.234Z,42.30
2018-02-22T06:49:45.532Z,42.45
2018-02-22T06:50:48.061Z,41.60
2018-02-22T06:51:50.594Z,36.53
2018-02-22T06:52:53.163Z,39.90
2018-02-22T06:53:55.699Z,38.13
2018-02-22T06:54:58.221Z,41.00
2018-02-22T06:56:00.749Z,40.63
2018-02-22T06:57:03.273Z,38.35
2018-02-22T06:58:06.598Z,39.65
2018-02-22T06:59:09.137Z,32.42
2018-02-22T07:00:12.434Z,33.78
2018-02-22T07:01:14.967Z,35.30
2018-02-22T07:02:17.494Z,37.47
2018-02-22T07:03:20.054Z,41.45
2018-02-22T07:04:22.580Z,36.38
2018-02-22T07:05:25.873Z,34.42
2018-02-22T07:06:28.439Z,40.38
2018-02-22T07:07:31.730Z,29.55
2018-02-22T07:08:34.253Z,30.48
2018-02-22T07:09:36.793Z,30.50
2018-02-22T07:10:39.373Z,35.70
2018-02-22T07:11:41.918Z,34.42
2018-02-22T07:12:44.445Z,35.40
2018-02-22T07:13:47.768Z,38.40
2018-02-22T07:14:50.295Z,33.55
2018-02-22T07:15:53.641Z,35.50
2018-02-22T07:16:56.182Z,38.25
2018-02-22T07:17:59.479Z,34.00
2018-02-22T07:19:02.053Z,35.50
2018-02-22T07:20:05.341Z,35.83
2018-02-22T07:21:07.864Z,37.05
2018-02-22T07:22:10.393Z,35.08
2018-02-22T07:23:16.790Z,38.97
2018-02-22T07:24:15.520Z,34.92
2018-02-22T07:25:18.057Z,33.65
2018-02-22T07:26:20.636Z,38.90
2018-02-22T07:27:23.152Z,39.40
2018-02-22T07:28:26.461Z,31.08
2018-02-22T07:29:28.998Z,43.08
2018-02-22T07:30:32.295Z,39.55
2018-02-22T07:31:34.861Z,37.45
2018-02-22T07:32:37.394Z,38.45
2018-02-22T07:33:39.925Z,41.45
2018-02-22T07:34:43.218Z,42.70
2018-02-22T07:35:45.745Z,38.58
2018-02-22T07:36:48.316Z,39.90
2018-02-22T07:37:50.847Z,38.80
2018-02-22T07:38:53.417Z,40.03
2018-02-22T07:39:56.719Z,42.45
2018-02-22T07:41:00.012Z,40.55
2018-02-22T07:42:02.528Z,39.08
2018-02-22T07:43:05.097Z,33.47
2018-02-22T07:44:07.648Z,40.30
2018-02-22T07:45:10.185Z,42.55
2018-02-22T07:46:12.713Z,40.00
2018-02-22T07:47:15.251Z,35.85
2018-02-22T07:48:17.798Z,40.65
2018-02-22T07:49:20.358Z,38.28
2018-02-22T07:50:22.884Z,38.33
2018-02-22T07:51:26.193Z,35.75
2018-02-22T07:52:28.723Z,39.47
2018-02-22T07:53:31.241Z,41.42
2018-02-22T07:54:33.804Z,45.47
2018-02-22T07:55:36.355Z,43.17
2018-02-22T07:56:38.929Z,43.67
2018-02-22T07:57:41.445Z,40.10
2018-02-22T07:58:43.972Z,46.10
2018-02-22T07:59:46.493Z,40.08
2018-02-22T08:00:49.029Z,42.80
2018-02-22T08:01:52.374Z,38.78
2018-02-22T08:02:54.898Z,48.15
2018-02-22T08:03:57.422Z,41.85
2018-02-22T08:04:59.994Z,39.28
2018-02-22T08:06:02.515Z,44.42
2018-02-22T08:07:05.838Z,41.37
2018-02-22T08:08:08.421Z,42.25
2018-02-22T08:09:10.913Z,48.15
2018-02-22T08:10:13.437Z,43.50
2018-02-22T08:11:16.014Z,41.50
2018-02-22T08:12:18.684Z,44.05
2018-02-22T08:13:21.212Z,46.05
2018-02-22T08:14:24.508Z,45.55
2018-02-22T08:15:27.034Z,43.13
2018-02-22T08:16:29.594Z,43.28
2018-02-22T08:17:32.174Z,40.70
2018-02-22T08:18:34.702Z,44.88
2018-02-22T08:19:37.234Z,40.88
2018-02-22T08:20:39.770Z,41.37
2018-02-22T08:21:42.297Z,45.30
2018-02-22T08:22:44.905Z,47.40
2018-02-22T08:23:47.513Z,37.80
2018-02-22T08:24:50.047Z,48.58
2018-02-22T08:25:53.344Z,43.10
2018-02-22T08:26:56.915Z,40.58
2018-02-22T08:28:00.245Z,35.38
2018-02-22T08:29:02.787Z,39.70
2018-02-22T08:30:06.096Z,39.47
2018-02-22T08:31:08.617Z,40.50
2018-02-22T08:32:11.158Z,41.72
2018-02-22T08:33:13.722Z,34.30
2018-02-22T08:34:16.249Z,36.25
2018-02-22T08:35:18.776Z,38.13
2018-02-22T08:36:21.402Z,40.85
2018-02-22T08:37:23.929Z,40.30
2018-02-22T08:38:27.220Z,38.03
2018-02-22T08:39:30.005Z,37.55
2018-02-22T08:40:32.558Z,40.10
2018-02-22T08:41:35.095Z,38.75
2018-02-22T08:42:37.624Z,34.30
2018-02-22T08:43:40.157Z,36.35
2018-02-22T08:44:42.717Z,39.72
2018-02-22T08:45:46.019Z,33.38
2018-02-22T08:46:48.550Z,35.85
2018-02-22T08:47:51.075Z,35.33
2018-02-22T08:48:53.597Z,38.58
2018-02-22T08:49:56.926Z,31.55
2018-02-22T08:50:59.679Z,37.92
2018-02-22T08:52:02.243Z,36.50
2018-02-22T08:53:04.765Z,35.55
2018-02-22T08:54:07.289Z,35.33
2018-02-22T08:55:09.814Z,37.38
2018-02-22T08:56:13.146Z,35.97
2018-02-22T08:57:15.673Z,34.13
2018-02-22T08:58:18.205Z,31.33
2018-02-22T08:59:21.517Z,32.67
2018-02-22T09:00:24.062Z,37.63
2018-02-22T09:01:26.620Z,30.17
2018-02-22T09:02:29.185Z,27.62
2018-02-22T09:03:31.709Z,28.80
2018-02-22T09:04:34.238Z,28.45
2018-02-22T09:05:37.572Z,27.08
2018-02-22T09:06:40.122Z,33.58
2018-02-22T09:07:42.650Z,31.02
2018-02-22T09:08:45.358Z,31.42
2018-02-22T09:09:48.756Z,31.10
2018-02-22T09:10:51.280Z,34.45
2018-02-22T09:11:54.614Z,29.65
2018-02-22T09:12:57.138Z,31.55
2018-02-22T09:14:00.423Z,30.12
2018-02-22T09:15:03.720Z,25.85
2018-02-22T09:16:06.249Z,29.33
2018-02-22T09:17:08.809Z,28.42
2018-02-22T09:18:11.329Z,27.52
2018-02-22T09:19:13.848Z,26.52
2018-02-22T09:20:16.406Z,37.58
2018-02-22T09:21:18.917Z,28.40
2018-02-22T09:22:21.442Z,30.92
2018-02-22T09:23:24.000Z,25.40
2018-02-22T09:24:26.529Z,27.50
2018-02-22T09:25:29.051Z,27.45
2018-02-22T09:26:31.573Z,28.20
2018-02-22T09:27:34.125Z,25.40
2018-02-22T09:28:36.645Z,27.00
2018-02-22T09:29:39.199Z,27.33
2018-02-22T09:30:41.725Z,21.95
2018-02-22T09:31:44.254Z,22.92
2018-02-22T09:32:47.541Z,24.73
2018-02-22T09:33:50.829Z,23.73
2018-02-22T09:34:54.145Z,26.45
2018-02-22T09:35:56.678Z,27.58
2018-02-22T09:36:59.985Z,22.87
2018-02-22T09:38:02.510Z,21.37
2018-02-22T09:39:05.033Z,22.33
2018-02-22T09:40:07.588Z,22.55
2018-02-22T09:41:10.113Z,22.90
2018-02-22T09:42:12.628Z,23.23
2018-02-22T09:43:15.151Z,23.27
2018-02-22T09:44:18.438Z,22.02
2018-02-22T09:45:21.769Z,17.42
2018-02-22T09:46:24.285Z,20.73
2018-02-22T09:47:27.570Z,18.58
2018-02-22T09:48:30.891Z,19.90
2018-02-22T09:49:33.417Z,21.65
2018-02-22T09:50:35.965Z,18.08
2018-02-22T09:51:38.477Z,21.80
2018-02-22T09:52:40.998Z,20.10
2018-02-22T09:53:43.521Z,21.48
2018-02-22T09:54:46.041Z,19.90
2018-02-22T09:55:48.597Z,18.85
2018-02-22T09:56:51.123Z,21.65
2018-02-22T09:57:53.648Z,18.95
2018-02-22T09:58:57.009Z,24.60
2018-02-22T09:59:59.529Z,23.58
2018-02-22T10:01:02.096Z,20.10
2018-02-22T10:02:04.609Z,26.33
2018-02-22T10:03:07.126Z,24.58
2018-02-22T10:04:09.676Z,24.70
2018-02-22T10:05:12.969Z,21.12
2018-02-22T10:06:15.504Z,21.30
2018-02-22T10:07:18.061Z,26.37
2018-02-22T10:08:20.581Z,24.33
2018-02-22T10:09:23.160Z,23.23
2018-02-22T10:10:25.700Z,20.88
2018-02-22T10:11:28.217Z,23.92
2018-02-22T10:12:30.738Z,22.27
2018-02-22T10:13:33.253Z,20.85
2018-02-22T10:14:35.806Z,25.05
2018-02-22T10:15:38.321Z,24.35
2018-02-22T10:16:41.609Z,26.10
2018-02-22T10:17:44.133Z,25.85
2018-02-22T10:18:46.648Z,23.27
2018-02-22T10:19:49.208Z,25.27
2018-02-22T10:20:51.721Z,24.40
2018-02-22T10:21:54.236Z,22.55
2018-02-22T10:22:57.565Z,24.12
2018-02-22T10:24:00.057Z,21.58
2018-02-22T10:25:02.626Z,23.10
2018-02-22T10:26:05.155Z,25.00
2018-02-22T10:27:07.750Z,22.67
2018-02-22T10:28:10.267Z,22.48
2018-02-22T10:29:12.788Z,24.58
2018-02-22T10:30:15.352Z,15.50
2018-02-22T10:31:17.878Z,16.83
2018-02-22T10:32:20.405Z,18.60
2018-02-22T10:33:23.696Z,17.62
2018-02-22T10:34:27.126Z,15.57
2018-02-22T10:35:29.681Z,18.75
2018-02-22T10:36:32.199Z,15.90
2018-02-22T10:37:35.526Z,14.63
2018-02-22T10:38:38.046Z,15.45
2018-02-22T10:39:40.578Z,15.27
2018-02-22T10:40:43.096Z,17.15
2018-02-22T10:41:46.378Z,15.60
2018-02-22T10:42:49.695Z,16.83
2018-02-22T10:43:52.217Z,18.65
2018-02-22T10:44:55.557Z,13.57
2018-02-22T10:45:58.080Z,16.15
2018-02-22T10:47:01.366Z,17.23
2018-02-22T10:48:04.653Z,13.70
2018-02-22T10:49:07.185Z,15.73
2018-02-22T10:50:09.730Z,12.57
2018-02-22T10:51:12.258Z,15.65
2018-02-22T10:52:14.811Z,16.17
2018-02-22T10:53:18.095Z,15.43
2018-02-22T10:54:21.369Z,12.55
2018-02-22T10:55:24.683Z,15.82
2018-02-22T10:56:27.197Z,14.77
2018-02-22T10:57:29.755Z,15.18
2018-02-22T10:58:32.283Z,18.33
2018-02-22T10:59:34.802Z,14.00
2018-02-22T11:00:43.032Z,14.85
2018-02-22T11:01:51.929Z,15.88
2018-02-22T11:02:55.217Z,15.73
2018-02-22T11:03:58.496Z,15.98
2018-02-22T11:05:01.080Z,15.07
2018-02-22T11:06:03.613Z,15.57
2018-02-22T11:07:06.164Z,17.05
2018-02-22T11:08:08.725Z,15.55
2018-02-22T11:09:11.241Z,14.30
2018-02-22T11:10:14.577Z,21.30
2018-02-22T11:11:17.094Z,14.48
2018-02-22T11:12:20.377Z,15.98
2018-02-22T11:13:23.666Z,16.60
2018-02-22T11:14:26.189Z,15.32
2018-02-22T11:15:28.742Z,18.37
2018-02-22T11:16:31.268Z,17.80
2018-02-22T11:17:33.790Z,16.35
2018-02-22T11:18:36.317Z,15.48
2018-02-22T11:19:38.835Z,17.65
2018-02-22T11:20:41.401Z,14.23
2018-02-22T11:21:43.926Z,16.37
2018-02-22T11:22:46.459Z,16.62
2018-02-22T11:23:49.746Z,18.30
2018-02-22T11:24:52.279Z,17.48
2018-02-22T11:25:54.847Z,17.65
2018-02-22T11:26:57.398Z,15.27
2018-02-22T11:27:59.946Z,16.92
2018-02-22T11:29:02.465Z,15.05
2018-02-22T11:30:05.756Z,16.40
2018-02-22T11:31:09.074Z,18.10
2018-02-22T11:32:11.601Z,15.50
2018-02-22T11:33:14.925Z,16.55
2018-02-22T11:34:17.461Z,17.80
2018-02-22T11:35:19.981Z,17.15
2018-02-22T11:36:22.505Z,17.70
2018-02-22T11:37:25.030Z,19.10
2018-02-22T11:38:27.600Z,15.32
2018-02-22T11:39:30.126Z,16.83
2018-02-22T11:40:32.659Z,16.95
2018-02-22T11:41:35.185Z,17.87
2018-02-22T11:42:37.697Z,16.52
2018-02-22T11:43:40.266Z,17.98
2018-02-22T11:44:42.789Z,16.08
2018-02-22T11:45:45.323Z,14.45
2018-02-22T11:46:47.861Z,18.20
2018-02-22T11:47:50.390Z,17.65
2018-02-22T11:48:52.958Z,16.73
2018-02-22T11:49:55.489Z,16.00
2018-02-22T11:50:58.008Z,14.80
2018-02-22T11:52:01.294Z,16.67
2018-02-22T11:53:04.577Z,16.83
2018-02-22T11:54:07.919Z,15.63
2018-02-22T11:55:10.448Z,14.10
2018-02-22T11:56:12.970Z,17.83
2018-02-22T11:57:15.484Z,15.65
2018-02-22T11:58:18.034Z,14.57
2018-02-22T11:59:20.593Z,16.42
2018-02-22T12:00:23.888Z,15.20
2018-02-22T12:01:26.409Z,16.67
2018-02-22T12:02:28.934Z,18.02
2018-02-22T12:03:31.498Z,14.48
2018-02-22T12:04:34.025Z,13.38
2018-02-22T12:05:36.540Z,14.25
2018-02-22T12:06:39.061Z,18.12
2018-02-22T12:07:42.353Z,15.45
2018-02-22T12:08:45.678Z,14.38
2018-02-22T12:09:48.196Z,15.93
2018-02-22T12:10:51.489Z,13.18
2018-02-22T12:11:54.014Z,14.15
2018-02-22T12:12:56.545Z,12.52
2018-02-22T12:13:59.102Z,12.40
2018-02-22T12:15:01.627Z,14.55
2018-02-22T12:16:04.156Z,14.48
2018-02-22T12:17:06.681Z,15.77
2018-02-22T12:18:09.987Z,12.70
2018-02-22T12:19:12.556Z,12.55
2018-02-22T12:20:15.076Z,16.20
2018-02-22T12:21:17.594Z,14.55
2018-02-22T12:22:20.110Z,24.30
2018-02-22T12:23:22.628Z,14.60
2018-02-22T12:24:25.176Z,14.15
2018-02-22T12:25:27.698Z,12.30
2018-02-22T12:26:30.247Z,15.27
2018-02-22T12:27:32.764Z,17.87
2018-02-22T12:28:36.049Z,19.25
2018-02-22T12:29:39.333Z,14.55
2018-02-22T12:30:42.613Z,13.45
2018-02-22T12:31:45.932Z,13.40
2018-02-22T12:32:48.453Z,17.20
2018-02-22T12:33:51.743Z,12.95
2018-02-22T12:34:55.035Z,14.00
2018-02-22T12:35:57.565Z,13.68
2018-02-22T12:37:00.137Z,12.80
2018-02-22T12:38:02.663Z,13.93
2018-02-22T12:39:05.241Z,16.65
2018-02-22T12:40:07.769Z,17.27
2018-02-22T12:41:10.298Z,14.65
2018-02-22T12:42:12.847Z,14.60
2018-02-22T12:43:15.436Z,16.58
2018-02-22T12:44:17.953Z,14.60
2018-02-22T12:45:20.473Z,15.27
2018-02-22T12:46:23.026Z,17.15
2018-02-22T12:47:25.553Z,17.15
2018-02-22T12:48:28.070Z,15.73
2018-02-22T12:49:30.622Z,15.18
2018-02-22T12:50:33.132Z,17.23
2018-02-22T12:51:35.651Z,15.60
2018-02-22T12:52:38.178Z,15.10
2018-02-22T12:53:40.700Z,14.60
2018-02-22T12:54:43.248Z,15.25
2018-02-22T12:55:45.769Z,18.35
2018-02-22T12:56:48.291Z,16.12
2018-02-22T12:57:50.850Z,15.82
2018-02-22T12:58:53.380Z,15.50
2018-02-22T12:59:55.898Z,17.33
2018-02-22T13:00:58.598Z,15.23
2018-02-22T13:02:01.157Z,16.45
2018-02-22T13:03:03.686Z,14.00
2018-02-22T13:04:06.211Z,20.23
2018-02-22T13:05:08.731Z,15.57
2018-02-22T13:06:11.290Z,13.30
2018-02-22T13:07:13.801Z,13.40
2018-02-22T13:08:16.326Z,17.37
2018-02-22T13:09:18.842Z,11.65
2018-02-22T13:10:21.368Z,12.65
2018-02-22T13:11:24.688Z,12.30
2018-02-22T13:12:27.212Z,11.43
2018-02-22T13:13:29.730Z,14.75
2018-02-22T13:14:32.249Z,15.30
2018-02-22T13:15:35.535Z,12.45
2018-02-22T13:16:38.854Z,14.23
2018-02-22T13:17:41.370Z,13.40
2018-02-22T13:18:43.890Z,14.98
2018-02-22T13:19:46.427Z,15.27
2018-02-22T13:20:49.746Z,10.85
2018-02-22T13:21:52.258Z,13.02
2018-02-22T13:22:54.777Z,13.20
2018-02-22T13:23:57.330Z,16.85
2018-02-22T13:24:59.861Z,13.52
2018-02-22T13:26:02.401Z,17.55
2018-02-22T13:27:04.951Z,14.15
2018-02-22T13:28:07.473Z,13.00